sensor_id;sensor_type;location;lat;lon;timestamp;P1;durP1;ratioP1;P2;durP2;ratioP2
24631;SDS011;59977;48.782;9.190;2022-12-11T00:01:59;30.55;;;17.85;;
24631;SDS011;59977;48.782;9.190;2022-12-11T00:04:25;32.38;;;17.98;;
24631;SDS011;59977;48.782;9.190;2022-12-11T00:06:51;35.10;;;18.45;;
24631;SDS011;59977;48.782;9.190;2022-12-11T00:09:17;30.90;;;18.42;;
24631;SDS011;59977;48.782;9.190;2022-12-11T00:11:44;30.98;;;18.75;;
24631;SDS011;59977;48.782;9.190;2022-12-11T00:14:10;32.50;;;17.70;;
24631;SDS011;59977;48.782;9.190;2022-12-11T00:16:35;32.65;;;18.92;;
24631;SDS011;59977;48.782;9.190;2022-12-11T00:19:01;34.35;;;19.40;;
24631;SDS011;59977;48.782;9.190;2022-12-11T00:21:27;34.35;;;19.40;;
24631;SDS011;59977;48.782;9.190;2022-12-11T00:23:53;33.78;;;19.92;;
24631;SDS011;59977;48.782;9.190;2022-12-11T00:26:18;36.95;;;20.58;;
24631;SDS011;59977;48.782;9.190;2022-12-11T00:28:44;35.97;;;20.23;;
24631;SDS011;59977;48.782;9.190;2022-12-11T00:31:12;37.42;;;18.83;;
24631;SDS011;59977;48.782;9.190;2022-12-11T00:33:41;33.35;;;19.65;;
24631;SDS011;59977;48.782;9.190;2022-12-11T00:36:15;31.55;;;18.92;;
24631;SDS011;59977;48.782;9.190;2022-12-11T00:38:45;37.45;;;19.45;;
24631;SDS011;59977;48.782;9.190;2022-12-11T00:41:11;35.10;;;20.38;;
24631;SDS011;59977;48.782;9.190;2022-12-11T00:43:37;36.90;;;20.25;;
24631;SDS011;59977;48.782;9.190;2022-12-11T00:46:03;35.67;;;19.48;;
24631;SDS011;59977;48.782;9.190;2022-12-11T00:48:29;34.70;;;20.33;;
24631;SDS011;59977;48.782;9.190;2022-12-11T09:47:59;25.65;;;13.45;;
24631;SDS011;59977;48.782;9.190;2022-12-11T09:50:27;26.35;;;14.82;;
24631;SDS011;59977;48.782;9.190;2022-12-11T10:01:13;25.15;;;11.75;;
24631;SDS011;59977;48.782;9.190;2022-12-11T10:06:22;23.45;;;11.88;;
24631;SDS011;59977;48.782;9.190;2022-12-11T10:12:27;19.92;;;10.75;;
24631;SDS011;59977;48.782;9.190;2022-12-11T10:15:12;18.90;;;11.10;;
24631;SDS011;59977;48.782;9.190;2022-12-11T10:17:42;27.77;;;16.17;;
24631;SDS011;59977;48.782;9.190;2022-12-11T10:22:43;28.27;;;15.73;;
24631;SDS011;59977;48.782;9.190;2022-12-11T10:25:20;26.35;;;15.68;;
24631;SDS011;59977;48.782;9.190;2022-12-11T10:27:49;29.77;;;17.23;;
24631;SDS011;59977;48.782;9.190;2022-12-11T10:30:16;28.30;;;16.95;;
24631;SDS011;59977;48.782;9.190;2022-12-11T10:35:59;29.15;;;16.13;;
24631;SDS011;59977;48.782;9.190;2022-12-11T10:38:32;26.42;;;15.90;;
24631;SDS011;59977;48.782;9.190;2022-12-11T10:43:39;33.33;;;17.05;;
24631;SDS011;59977;48.782;9.190;2022-12-11T10:46:19;28.13;;;16.30;;
24631;SDS011;59977;48.782;9.190;2022-12-11T10:48:47;25.55;;;15.90;;
24631;SDS011;59977;48.782;9.190;2022-12-11T10:51:21;28.20;;;17.33;;
24631;SDS011;59977;48.782;9.190;2022-12-11T10:53:51;30.35;;;16.83;;
24631;SDS011;59977;48.782;9.190;2022-12-11T10:56:26;33.20;;;16.67;;
24631;SDS011;59977;48.782;9.190;2022-12-11T10:58:53;30.92;;;18.00;;
24631;SDS011;59977;48.782;9.190;2022-12-11T11:01:22;27.15;;;16.02;;
24631;SDS011;59977;48.782;9.190;2022-12-11T11:04:06;27.67;;;16.67;;
24631;SDS011;59977;48.782;9.190;2022-12-11T11:06:39;29.10;;;16.30;;
24631;SDS011;59977;48.782;9.190;2022-12-11T11:09:21;29.90;;;16.80;;
24631;SDS011;59977;48.782;9.190;2022-12-11T11:11:53;27.38;;;16.08;;
24631;SDS011;59977;48.782;9.190;2022-12-11T11:14:19;29.42;;;17.02;;
24631;SDS011;59977;48.782;9.190;2022-12-11T11:16:47;26.75;;;16.15;;
24631;SDS011;59977;48.782;9.190;2022-12-11T11:22:00;29.55;;;16.30;;
24631;SDS011;59977;48.782;9.190;2022-12-11T11:24:39;31.90;;;16.45;;
24631;SDS011;59977;48.782;9.190;2022-12-11T11:27:22;28.40;;;16.10;;
24631;SDS011;59977;48.782;9.190;2022-12-11T11:29:54;27.50;;;16.17;;
24631;SDS011;59977;48.782;9.190;2022-12-11T11:32:25;29.40;;;15.70;;
24631;SDS011;59977;48.782;9.190;2022-12-11T11:37:38;34.42;;;16.48;;
24631;SDS011;59977;48.782;9.190;2022-12-11T11:42:54;33.83;;;17.25;;
24631;SDS011;59977;48.782;9.190;2022-12-11T11:45:25;30.13;;;18.33;;
24631;SDS011;59977;48.782;9.190;2022-12-11T11:48:25;24.92;;;15.88;;
24631;SDS011;59977;48.782;9.190;2022-12-11T11:51:13;27.13;;;15.43;;
24631;SDS011;59977;48.782;9.190;2022-12-11T11:54:12;29.30;;;16.73;;
24631;SDS011;59977;48.782;9.190;2022-12-11T11:56:49;29.08;;;16.10;;
24631;SDS011;59977;48.782;9.190;2022-12-11T12:01:57;25.53;;;15.07;;
24631;SDS011;59977;48.782;9.190;2022-12-11T12:04:24;28.80;;;16.35;;
24631;SDS011;59977;48.782;9.190;2022-12-11T12:07:01;28.00;;;16.38;;
24631;SDS011;59977;48.782;9.190;2022-12-11T12:09:37;27.83;;;16.30;;
24631;SDS011;59977;48.782;9.190;2022-12-11T12:17:47;29.73;;;15.57;;
24631;SDS011;59977;48.782;9.190;2022-12-11T12:25:48;27.33;;;16.65;;
24631;SDS011;59977;48.782;9.190;2022-12-11T12:34:00;28.13;;;15.80;;
24631;SDS011;59977;48.782;9.190;2022-12-11T12:48:43;31.52;;;17.00;;
24631;SDS011;59977;48.782;9.190;2022-12-11T12:52:00;32.75;;;19.42;;
24631;SDS011;59977;48.782;9.190;2022-12-11T12:54:50;32.70;;;19.00;;
24631;SDS011;59977;48.782;9.190;2022-12-11T12:57:46;31.42;;;17.73;;
24631;SDS011;59977;48.782;9.190;2022-12-11T13:06:42;31.02;;;16.40;;
24631;SDS011;59977;48.782;9.190;2022-12-11T13:12:53;33.40;;;17.20;;
24631;SDS011;59977;48.782;9.190;2022-12-11T13:21:32;28.77;;;16.45;;
24631;SDS011;59977;48.782;9.190;2022-12-11T13:24:11;31.17;;;17.98;;
24631;SDS011;59977;48.782;9.190;2022-12-11T13:26:38;31.10;;;18.17;;
24631;SDS011;59977;48.782;9.190;2022-12-11T13:29:04;41.17;;;19.52;;
24631;SDS011;59977;48.782;9.190;2022-12-11T13:31:37;32.05;;;18.90;;
24631;SDS011;59977;48.782;9.190;2022-12-11T13:34:11;33.35;;;18.40;;
24631;SDS011;59977;48.782;9.190;2022-12-11T13:36:48;31.67;;;17.20;;
24631;SDS011;59977;48.782;9.190;2022-12-11T13:39:24;33.65;;;20.15;;
24631;SDS011;59977;48.782;9.190;2022-12-11T13:41:56;35.85;;;20.80;;
24631;SDS011;59977;48.782;9.190;2022-12-11T13:44:26;34.50;;;19.23;;
24631;SDS011;59977;48.782;9.190;2022-12-11T13:46:56;39.05;;;22.42;;
24631;SDS011;59977;48.782;9.190;2022-12-11T13:49:27;43.83;;;24.77;;
24631;SDS011;59977;48.782;9.190;2022-12-11T13:51:59;52.90;;;26.90;;
24631;SDS011;59977;48.782;9.190;2022-12-11T13:54:26;39.95;;;21.88;;
24631;SDS011;59977;48.782;9.190;2022-12-11T14:04:48;36.85;;;20.20;;
24631;SDS011;59977;48.782;9.190;2022-12-11T14:07:27;38.47;;;20.38;;
24631;SDS011;59977;48.782;9.190;2022-12-11T14:19:03;34.83;;;19.05;;
24631;SDS011;59977;48.782;9.190;2022-12-11T14:25:01;40.08;;;21.40;;
24631;SDS011;59977;48.782;9.190;2022-12-11T14:27:53;41.75;;;21.45;;
24631;SDS011;59977;48.782;9.190;2022-12-11T14:30:24;50.15;;;22.48;;
24631;SDS011;59977;48.782;9.190;2022-12-11T14:35:31;42.97;;;21.63;;
24631;SDS011;59977;48.782;9.190;2022-12-11T14:38:00;39.13;;;21.30;;
24631;SDS011;59977;48.782;9.190;2022-12-11T14:40:34;43.72;;;21.73;;
24631;SDS011;59977;48.782;9.190;2022-12-11T14:43:06;43.40;;;21.73;;
24631;SDS011;59977;48.782;9.190;2022-12-11T14:45:39;43.25;;;22.05;;
24631;SDS011;59977;48.782;9.190;2022-12-11T14:48:12;46.92;;;23.23;;
24631;SDS011;59977;48.782;9.190;2022-12-11T14:50:45;46.30;;;22.23;;
24631;SDS011;59977;48.782;9.190;2022-12-11T14:53:21;47.90;;;24.80;;
24631;SDS011;59977;48.782;9.190;2022-12-11T14:55:50;68.30;;;31.92;;
24631;SDS011;59977;48.782;9.190;2022-12-11T14:58:20;65.82;;;31.27;;
24631;SDS011;59977;48.782;9.190;2022-12-11T15:01:02;39.20;;;20.65;;
24631;SDS011;59977;48.782;9.190;2022-12-11T15:03:32;40.78;;;21.45;;
24631;SDS011;59977;48.782;9.190;2022-12-11T15:06:00;38.40;;;21.33;;
24631;SDS011;59977;48.782;9.190;2022-12-11T15:08:31;36.17;;;19.60;;
24631;SDS011;59977;48.782;9.190;2022-12-11T15:16:22;42.22;;;21.60;;
24631;SDS011;59977;48.782;9.190;2022-12-11T15:18:50;39.88;;;21.80;;
24631;SDS011;59977;48.782;9.190;2022-12-11T15:21:18;43.08;;;21.60;;
24631;SDS011;59977;48.782;9.190;2022-12-11T15:23:54;46.33;;;22.05;;
24631;SDS011;59977;48.782;9.190;2022-12-11T15:26:34;41.33;;;21.15;;
24631;SDS011;59977;48.782;9.190;2022-12-11T15:29:21;46.15;;;23.00;;
24631;SDS011;59977;48.782;9.190;2022-12-11T15:34:35;44.17;;;22.20;;
24631;SDS011;59977;48.782;9.190;2022-12-11T15:37:23;42.28;;;21.52;;
24631;SDS011;59977;48.782;9.190;2022-12-11T15:39:51;39.45;;;20.95;;
24631;SDS011;59977;48.782;9.190;2022-12-11T15:42:31;39.05;;;21.05;;
24631;SDS011;59977;48.782;9.190;2022-12-11T15:45:01;38.90;;;20.73;;
24631;SDS011;59977;48.782;9.190;2022-12-11T15:47:29;45.20;;;21.85;;
24631;SDS011;59977;48.782;9.190;2022-12-11T15:49:59;44.42;;;21.70;;
24631;SDS011;59977;48.782;9.190;2022-12-11T15:52:48;41.42;;;20.33;;
24631;SDS011;59977;48.782;9.190;2022-12-11T15:55:16;41.20;;;21.13;;
24631;SDS011;59977;48.782;9.190;2022-12-11T15:57:44;41.17;;;22.05;;
24631;SDS011;59977;48.782;9.190;2022-12-11T16:00:15;47.70;;;22.85;;
24631;SDS011;59977;48.782;9.190;2022-12-11T16:02:42;41.88;;;19.52;;
24631;SDS011;59977;48.782;9.190;2022-12-11T16:05:09;40.80;;;21.90;;
24631;SDS011;59977;48.782;9.190;2022-12-11T16:07:35;40.72;;;21.67;;
24631;SDS011;59977;48.782;9.190;2022-12-11T16:10:00;41.20;;;21.35;;
24631;SDS011;59977;48.782;9.190;2022-12-11T16:12:26;50.47;;;23.45;;
24631;SDS011;59977;48.782;9.190;2022-12-11T16:14:55;48.70;;;25.27;;
24631;SDS011;59977;48.782;9.190;2022-12-11T16:17:20;64.90;;;34.70;;
24631;SDS011;59977;48.782;9.190;2022-12-11T16:19:46;55.20;;;26.02;;
24631;SDS011;59977;48.782;9.190;2022-12-11T16:22:12;51.25;;;26.50;;
24631;SDS011;59977;48.782;9.190;2022-12-11T16:24:40;50.58;;;27.38;;
24631;SDS011;59977;48.782;9.190;2022-12-11T16:27:10;64.88;;;30.55;;
24631;SDS011;59977;48.782;9.190;2022-12-11T16:29:37;57.33;;;29.77;;
24631;SDS011;59977;48.782;9.190;2022-12-11T16:32:05;54.97;;;28.17;;
24631;SDS011;59977;48.782;9.190;2022-12-11T16:34:32;59.60;;;30.45;;
24631;SDS011;59977;48.782;9.190;2022-12-11T16:37:18;59.88;;;28.83;;
24631;SDS011;59977;48.782;9.190;2022-12-11T16:39:43;58.60;;;29.17;;
24631;SDS011;59977;48.782;9.190;2022-12-11T16:42:10;58.97;;;29.10;;
24631;SDS011;59977;48.782;9.190;2022-12-11T16:44:36;63.63;;;30.90;;
24631;SDS011;59977;48.782;9.190;2022-12-11T16:47:02;63.10;;;29.02;;
24631;SDS011;59977;48.782;9.190;2022-12-11T16:53:07;61.38;;;29.10;;
24631;SDS011;59977;48.782;9.190;2022-12-11T16:55:47;64.18;;;29.77;;
24631;SDS011;59977;48.782;9.190;2022-12-11T17:01:43;59.40;;;29.00;;
24631;SDS011;59977;48.782;9.190;2022-12-11T17:04:09;63.35;;;30.83;;
24631;SDS011;59977;48.782;9.190;2022-12-11T17:06:37;59.78;;;29.85;;
24631;SDS011;59977;48.782;9.190;2022-12-11T17:09:08;63.40;;;29.92;;
24631;SDS011;59977;48.782;9.190;2022-12-11T17:11:36;66.43;;;31.73;;
24631;SDS011;59977;48.782;9.190;2022-12-11T17:14:08;64.70;;;32.40;;
24631;SDS011;59977;48.782;9.190;2022-12-11T17:17:03;63.67;;;31.70;;
24631;SDS011;59977;48.782;9.190;2022-12-11T17:22:48;63.42;;;31.48;;
24631;SDS011;59977;48.782;9.190;2022-12-11T17:28:48;65.50;;;31.73;;
24631;SDS011;59977;48.782;9.190;2022-12-11T17:31:36;56.72;;;29.05;;
24631;SDS011;59977;48.782;9.190;2022-12-11T17:34:02;60.13;;;27.90;;
24631;SDS011;59977;48.782;9.190;2022-12-11T17:36:47;60.55;;;28.58;;
24631;SDS011;59977;48.782;9.190;2022-12-11T17:42:39;54.80;;;26.38;;
24631;SDS011;59977;48.782;9.190;2022-12-11T17:48:35;52.45;;;26.23;;
24631;SDS011;59977;48.782;9.190;2022-12-11T17:51:14;58.67;;;28.80;;
24631;SDS011;59977;48.782;9.190;2022-12-11T17:58:58;52.95;;;28.00;;
24631;SDS011;59977;48.782;9.190;2022-12-11T18:01:26;52.67;;;27.13;;
24631;SDS011;59977;48.782;9.190;2022-12-11T18:10:52;54.55;;;26.45;;
24631;SDS011;59977;48.782;9.190;2022-12-11T18:13:27;53.33;;;27.00;;
24631;SDS011;59977;48.782;9.190;2022-12-11T18:16:45;60.17;;;26.70;;
24631;SDS011;59977;48.782;9.190;2022-12-11T18:19:25;56.03;;;26.98;;
24631;SDS011;59977;48.782;9.190;2022-12-11T18:22:01;58.15;;;27.95;;
24631;SDS011;59977;48.782;9.190;2022-12-11T18:24:34;54.92;;;27.42;;
24631;SDS011;59977;48.782;9.190;2022-12-11T18:27:05;57.00;;;27.42;;
24631;SDS011;59977;48.782;9.190;2022-12-11T18:29:34;56.08;;;28.05;;
24631;SDS011;59977;48.782;9.190;2022-12-11T19:55:05;71.60;;;34.10;;
24631;SDS011;59977;48.782;9.190;2022-12-11T19:57:54;70.60;;;34.50;;
24631;SDS011;59977;48.782;9.190;2022-12-11T20:22:38;60.50;;;29.15;;
24631;SDS011;59977;48.782;9.190;2022-12-11T20:42:01;50.70;;;26.50;;
24631;SDS011;59977;48.782;9.190;2022-12-11T20:44:29;54.40;;;27.33;;
24631;SDS011;59977;48.782;9.190;2022-12-11T20:46:59;50.63;;;26.58;;
24631;SDS011;59977;48.782;9.190;2022-12-11T20:49:56;51.85;;;26.42;;
24631;SDS011;59977;48.782;9.190;2022-12-11T20:52:56;50.03;;;26.48;;
24631;SDS011;59977;48.782;9.190;2022-12-11T20:55:22;52.47;;;26.88;;
24631;SDS011;59977;48.782;9.190;2022-12-11T20:57:48;50.67;;;26.90;;
24631;SDS011;59977;48.782;9.190;2022-12-11T21:00:13;56.05;;;28.58;;
24631;SDS011;59977;48.782;9.190;2022-12-11T21:02:40;53.45;;;27.60;;
24631;SDS011;59977;48.782;9.190;2022-12-11T21:05:05;52.35;;;26.73;;
24631;SDS011;59977;48.782;9.190;2022-12-11T21:07:31;54.22;;;27.95;;
24631;SDS011;59977;48.782;9.190;2022-12-11T21:09:57;50.25;;;27.45;;
24631;SDS011;59977;48.782;9.190;2022-12-11T21:12:22;53.20;;;27.10;;
24631;SDS011;59977;48.782;9.190;2022-12-11T21:14:48;51.30;;;27.02;;
24631;SDS011;59977;48.782;9.190;2022-12-11T21:17:14;57.88;;;27.58;;
24631;SDS011;59977;48.782;9.190;2022-12-11T21:19:39;53.28;;;27.83;;
24631;SDS011;59977;48.782;9.190;2022-12-11T21:22:05;54.33;;;28.55;;
24631;SDS011;59977;48.782;9.190;2022-12-11T21:24:30;51.92;;;26.63;;
24631;SDS011;59977;48.782;9.190;2022-12-11T21:26:57;51.55;;;27.00;;
24631;SDS011;59977;48.782;9.190;2022-12-11T21:29:24;47.85;;;26.70;;
24631;SDS011;59977;48.782;9.190;2022-12-11T21:31:51;47.10;;;25.92;;
24631;SDS011;59977;48.782;9.190;2022-12-11T21:34:34;51.67;;;25.85;;
24631;SDS011;59977;48.782;9.190;2022-12-11T21:37:01;57.45;;;29.33;;
24631;SDS011;59977;48.782;9.190;2022-12-11T21:39:27;48.50;;;26.27;;
24631;SDS011;59977;48.782;9.190;2022-12-11T21:41:53;54.30;;;27.98;;
24631;SDS011;59977;48.782;9.190;2022-12-11T21:44:18;53.08;;;26.45;;
24631;SDS011;59977;48.782;9.190;2022-12-11T21:46:45;50.60;;;26.92;;
24631;SDS011;59977;48.782;9.190;2022-12-11T21:49:11;48.00;;;24.52;;
24631;SDS011;59977;48.782;9.190;2022-12-11T21:51:37;46.35;;;25.73;;
24631;SDS011;59977;48.782;9.190;2022-12-11T21:54:06;49.20;;;25.48;;
24631;SDS011;59977;48.782;9.190;2022-12-11T21:56:37;45.88;;;25.02;;
24631;SDS011;59977;48.782;9.190;2022-12-11T21:59:03;47.47;;;25.77;;
24631;SDS011;59977;48.782;9.190;2022-12-11T22:01:33;47.78;;;24.90;;
24631;SDS011;59977;48.782;9.190;2022-12-11T22:04:05;48.45;;;25.25;;
24631;SDS011;59977;48.782;9.190;2022-12-11T22:06:31;46.40;;;25.10;;
24631;SDS011;59977;48.782;9.190;2022-12-11T22:08:57;42.20;;;24.15;;
24631;SDS011;59977;48.782;9.190;2022-12-11T22:11:24;44.05;;;24.75;;
24631;SDS011;59977;48.782;9.190;2022-12-11T22:13:52;47.15;;;24.58;;
24631;SDS011;59977;48.782;9.190;2022-12-11T22:16:18;48.50;;;25.63;;
24631;SDS011;59977;48.782;9.190;2022-12-11T22:18:44;48.38;;;26.73;;
24631;SDS011;59977;48.782;9.190;2022-12-11T22:21:10;50.25;;;26.92;;
24631;SDS011;59977;48.782;9.190;2022-12-11T22:23:37;47.10;;;25.50;;
24631;SDS011;59977;48.782;9.190;2022-12-11T22:26:04;47.72;;;26.17;;
24631;SDS011;59977;48.782;9.190;2022-12-11T22:28:30;85.45;;;48.10;;
24631;SDS011;59977;48.782;9.190;2022-12-11T22:30:56;51.83;;;25.63;;
24631;SDS011;59977;48.782;9.190;2022-12-11T22:33:22;44.80;;;26.23;;
24631;SDS011;59977;48.782;9.190;2022-12-11T22:35:55;47.65;;;26.55;;
24631;SDS011;59977;48.782;9.190;2022-12-11T22:38:24;45.70;;;22.58;;
24631;SDS011;59977;48.782;9.190;2022-12-11T22:40:50;41.65;;;23.23;;
24631;SDS011;59977;48.782;9.190;2022-12-11T22:43:17;50.13;;;24.42;;
24631;SDS011;59977;48.782;9.190;2022-12-11T22:45:43;53.70;;;26.73;;
24631;SDS011;59977;48.782;9.190;2022-12-11T22:48:09;45.40;;;25.50;;
24631;SDS011;59977;48.782;9.190;2022-12-11T22:50:34;51.47;;;25.85;;
24631;SDS011;59977;48.782;9.190;2022-12-11T22:53:01;48.35;;;26.10;;
24631;SDS011;59977;48.782;9.190;2022-12-11T22:55:28;53.42;;;28.33;;
24631;SDS011;59977;48.782;9.190;2022-12-11T22:57:54;44.47;;;24.60;;
24631;SDS011;59977;48.782;9.190;2022-12-11T23:00:20;44.38;;;24.13;;
24631;SDS011;59977;48.782;9.190;2022-12-11T23:02:46;48.90;;;24.95;;
24631;SDS011;59977;48.782;9.190;2022-12-11T23:05:12;50.05;;;22.10;;
24631;SDS011;59977;48.782;9.190;2022-12-11T23:07:37;39.20;;;21.25;;
24631;SDS011;59977;48.782;9.190;2022-12-11T23:10:04;40.17;;;21.17;;
24631;SDS011;59977;48.782;9.190;2022-12-11T23:12:31;44.25;;;22.75;;
24631;SDS011;59977;48.782;9.190;2022-12-11T23:14:56;39.90;;;21.13;;
24631;SDS011;59977;48.782;9.190;2022-12-11T23:17:23;44.67;;;24.25;;
24631;SDS011;59977;48.782;9.190;2022-12-11T23:19:48;45.38;;;23.45;;
24631;SDS011;59977;48.782;9.190;2022-12-11T23:22:14;43.85;;;23.50;;
24631;SDS011;59977;48.782;9.190;2022-12-11T23:24:40;42.80;;;22.75;;
24631;SDS011;59977;48.782;9.190;2022-12-11T23:27:06;42.03;;;22.38;;
24631;SDS011;59977;48.782;9.190;2022-12-11T23:29:32;43.25;;;21.65;;
24631;SDS011;59977;48.782;9.190;2022-12-11T23:31:58;44.53;;;23.38;;
24631;SDS011;59977;48.782;9.190;2022-12-11T23:34:24;43.80;;;22.50;;
24631;SDS011;59977;48.782;9.190;2022-12-11T23:36:49;41.13;;;21.45;;
24631;SDS011;59977;48.782;9.190;2022-12-11T23:39:15;35.17;;;20.52;;
24631;SDS011;59977;48.782;9.190;2022-12-11T23:41:40;40.40;;;22.38;;
24631;SDS011;59977;48.782;9.190;2022-12-11T23:44:07;40.95;;;21.38;;
24631;SDS011;59977;48.782;9.190;2022-12-11T23:46:33;39.90;;;21.27;;
24631;SDS011;59977;48.782;9.190;2022-12-11T23:48:59;43.60;;;21.98;;
24631;SDS011;59977;48.782;9.190;2022-12-11T23:51:24;43.75;;;22.85;;
24631;SDS011;59977;48.782;9.190;2022-12-11T23:53:50;43.40;;;21.02;;
24631;SDS011;59977;48.782;9.190;2022-12-11T23:56:18;41.70;;;21.13;;
24631;SDS011;59977;48.782;9.190;2022-12-11T23:58:46;42.97;;;22.38;;
